sensor_id;sensor_type;location;lat;lon;timestamp;P1;durP1;ratioP1;P2;durP2;ratioP2
801;SDS011;383;48.766;9.270;2023-07-22T00:02:13;4.87;;;3.03;;
801;SDS011;383;48.766;9.270;2023-07-22T00:04:40;5.03;;;3.27;;
801;SDS011;383;48.766;9.270;2023-07-22T00:07:07;4.67;;;2.83;;
801;SDS011;383;48.766;9.270;2023-07-22T00:09:33;5.27;;;3.13;;
801;SDS011;383;48.766;9.270;2023-07-22T00:12:02;7.80;;;2.83;;
801;SDS011;383;48.766;9.270;2023-07-22T00:14:29;5.20;;;4.13;;
801;SDS011;383;48.766;9.270;2023-07-22T00:16:55;9.60;;;3.60;;
801;SDS011;383;48.766;9.270;2023-07-22T00:19:22;4.37;;;2.63;;
801;SDS011;383;48.766;9.270;2023-07-22T00:21:49;3.80;;;2.77;;
801;SDS011;383;48.766;9.270;2023-07-22T00:24:17;5.43;;;3.37;;
801;SDS011;383;48.766;9.270;2023-07-22T00:26:43;8.90;;;3.50;;
801;SDS011;383;48.766;9.270;2023-07-22T00:29:12;4.20;;;3.10;;
801;SDS011;383;48.766;9.270;2023-07-22T00:31:38;7.73;;;3.57;;
801;SDS011;383;48.766;9.270;2023-07-22T00:34:06;4.83;;;3.23;;
801;SDS011;383;48.766;9.270;2023-07-22T00:36:33;5.40;;;3.30;;
801;SDS011;383;48.766;9.270;2023-07-22T00:39:00;4.80;;;3.17;;
801;SDS011;383;48.766;9.270;2023-07-22T00:41:27;3.50;;;2.83;;
801;SDS011;383;48.766;9.270;2023-07-22T00:43:55;4.70;;;3.73;;
801;SDS011;383;48.766;9.270;2023-07-22T00:46:23;3.97;;;3.10;;
801;SDS011;383;48.766;9.270;2023-07-22T00:48:49;5.60;;;3.77;;
801;SDS011;383;48.766;9.270;2023-07-22T00:51:17;5.20;;;3.63;;
801;SDS011;383;48.766;9.270;2023-07-22T00:53:44;6.27;;;3.30;;
801;SDS011;383;48.766;9.270;2023-07-22T00:56:11;5.10;;;3.30;;
801;SDS011;383;48.766;9.270;2023-07-22T00:58:37;5.27;;;3.37;;
801;SDS011;383;48.766;9.270;2023-07-22T01:01:04;4.60;;;3.27;;
801;SDS011;383;48.766;9.270;2023-07-22T01:03:33;5.47;;;3.60;;
801;SDS011;383;48.766;9.270;2023-07-22T01:06:01;4.90;;;3.10;;
801;SDS011;383;48.766;9.270;2023-07-22T01:08:28;12.00;;;3.53;;
801;SDS011;383;48.766;9.270;2023-07-22T01:10:55;6.07;;;2.87;;
801;SDS011;383;48.766;9.270;2023-07-22T01:13:22;19.23;;;4.87;;
801;SDS011;383;48.766;9.270;2023-07-22T01:15:48;4.77;;;2.60;;
801;SDS011;383;48.766;9.270;2023-07-22T01:18:15;12.20;;;3.77;;
801;SDS011;383;48.766;9.270;2023-07-22T01:20:44;6.40;;;2.80;;
801;SDS011;383;48.766;9.270;2023-07-22T01:23:13;7.60;;;3.10;;
801;SDS011;383;48.766;9.270;2023-07-22T01:25:40;4.33;;;3.00;;
801;SDS011;383;48.766;9.270;2023-07-22T01:28:08;5.57;;;2.63;;
801;SDS011;383;48.766;9.270;2023-07-22T01:30:36;4.68;;;3.47;;
801;SDS011;383;48.766;9.270;2023-07-22T01:33:03;4.27;;;2.97;;
801;SDS011;383;48.766;9.270;2023-07-22T01:35:30;5.20;;;3.10;;
801;SDS011;383;48.766;9.270;2023-07-22T01:37:56;6.47;;;3.30;;
801;SDS011;383;48.766;9.270;2023-07-22T01:40:25;7.73;;;3.60;;
801;SDS011;383;48.766;9.270;2023-07-22T01:42:53;12.52;;;3.35;;
801;SDS011;383;48.766;9.270;2023-07-22T01:45:20;7.35;;;3.80;;
801;SDS011;383;48.766;9.270;2023-07-22T01:47:47;7.18;;;3.40;;
801;SDS011;383;48.766;9.270;2023-07-22T01:50:13;3.88;;;2.85;;
801;SDS011;383;48.766;9.270;2023-07-22T01:52:41;4.63;;;2.85;;
801;SDS011;383;48.766;9.270;2023-07-22T01:55:08;4.47;;;3.00;;
801;SDS011;383;48.766;9.270;2023-07-22T01:57:37;7.13;;;3.20;;
801;SDS011;383;48.766;9.270;2023-07-22T02:00:05;11.02;;;3.78;;
801;SDS011;383;48.766;9.270;2023-07-22T02:02:32;5.55;;;3.13;;
801;SDS011;383;48.766;9.270;2023-07-22T02:04:59;4.50;;;3.35;;
801;SDS011;383;48.766;9.270;2023-07-22T02:07:26;5.65;;;3.22;;
801;SDS011;383;48.766;9.270;2023-07-22T02:09:54;12.07;;;4.50;;
801;SDS011;383;48.766;9.270;2023-07-22T02:12:21;4.28;;;3.00;;
801;SDS011;383;48.766;9.270;2023-07-22T02:14:49;5.13;;;3.30;;
801;SDS011;383;48.766;9.270;2023-07-22T02:17:15;4.78;;;3.00;;
801;SDS011;383;48.766;9.270;2023-07-22T02:19:42;5.20;;;3.65;;
801;SDS011;383;48.766;9.270;2023-07-22T02:22:09;6.20;;;3.30;;
801;SDS011;383;48.766;9.270;2023-07-22T02:24:36;4.38;;;3.70;;
801;SDS011;383;48.766;9.270;2023-07-22T02:27:03;4.07;;;3.00;;
801;SDS011;383;48.766;9.270;2023-07-22T02:29:30;8.57;;;3.80;;
801;SDS011;383;48.766;9.270;2023-07-22T02:31:58;4.78;;;3.20;;
801;SDS011;383;48.766;9.270;2023-07-22T02:34:25;6.88;;;3.47;;
801;SDS011;383;48.766;9.270;2023-07-22T02:36:52;12.95;;;3.85;;
801;SDS011;383;48.766;9.270;2023-07-22T02:39:18;5.32;;;3.95;;
801;SDS011;383;48.766;9.270;2023-07-22T02:41:45;5.35;;;3.22;;
801;SDS011;383;48.766;9.270;2023-07-22T02:44:12;6.25;;;3.60;;
801;SDS011;383;48.766;9.270;2023-07-22T02:46:38;7.80;;;3.90;;
801;SDS011;383;48.766;9.270;2023-07-22T02:49:07;6.25;;;4.03;;
801;SDS011;383;48.766;9.270;2023-07-22T02:51:35;5.55;;;3.60;;
801;SDS011;383;48.766;9.270;2023-07-22T02:54:01;6.28;;;3.20;;
801;SDS011;383;48.766;9.270;2023-07-22T02:56:28;5.28;;;3.40;;
801;SDS011;383;48.766;9.270;2023-07-22T02:58:55;3.83;;;2.97;;
801;SDS011;383;48.766;9.270;2023-07-22T03:01:22;7.13;;;3.72;;
801;SDS011;383;48.766;9.270;2023-07-22T03:03:49;4.85;;;2.90;;
801;SDS011;383;48.766;9.270;2023-07-22T03:06:17;5.57;;;3.58;;
801;SDS011;383;48.766;9.270;2023-07-22T03:08:44;6.07;;;3.20;;
801;SDS011;383;48.766;9.270;2023-07-22T03:11:11;4.90;;;3.17;;
801;SDS011;383;48.766;9.270;2023-07-22T03:13:38;5.20;;;3.60;;
801;SDS011;383;48.766;9.270;2023-07-22T03:16:05;5.63;;;3.30;;
801;SDS011;383;48.766;9.270;2023-07-22T03:18:33;9.63;;;3.33;;
801;SDS011;383;48.766;9.270;2023-07-22T03:20:59;7.18;;;3.67;;
801;SDS011;383;48.766;9.270;2023-07-22T03:23:27;4.85;;;3.25;;
801;SDS011;383;48.766;9.270;2023-07-22T03:25:54;7.63;;;4.10;;
801;SDS011;383;48.766;9.270;2023-07-22T03:28:22;5.55;;;3.85;;
801;SDS011;383;48.766;9.270;2023-07-22T03:30:50;5.30;;;3.30;;
801;SDS011;383;48.766;9.270;2023-07-22T03:33:17;6.35;;;3.67;;
801;SDS011;383;48.766;9.270;2023-07-22T03:35:44;4.68;;;3.60;;
801;SDS011;383;48.766;9.270;2023-07-22T03:38:12;8.88;;;3.97;;
801;SDS011;383;48.766;9.270;2023-07-22T03:40:40;5.32;;;3.80;;
801;SDS011;383;48.766;9.270;2023-07-22T03:43:07;7.50;;;3.65;;
801;SDS011;383;48.766;9.270;2023-07-22T03:45:34;9.82;;;3.90;;
801;SDS011;383;48.766;9.270;2023-07-22T03:48:00;6.68;;;3.67;;
801;SDS011;383;48.766;9.270;2023-07-22T03:50:27;6.22;;;4.07;;
801;SDS011;383;48.766;9.270;2023-07-22T03:52:54;9.20;;;4.00;;
801;SDS011;383;48.766;9.270;2023-07-22T03:55:21;5.20;;;3.80;;
801;SDS011;383;48.766;9.270;2023-07-22T03:57:49;7.25;;;3.50;;
801;SDS011;383;48.766;9.270;2023-07-22T04:00:15;8.50;;;3.72;;
801;SDS011;383;48.766;9.270;2023-07-22T04:02:42;8.15;;;4.15;;
801;SDS011;383;48.766;9.270;2023-07-22T04:05:09;5.00;;;3.15;;
801;SDS011;383;48.766;9.270;2023-07-22T04:07:36;7.68;;;4.47;;
801;SDS011;383;48.766;9.270;2023-07-22T04:10:04;5.50;;;3.75;;
801;SDS011;383;48.766;9.270;2023-07-22T04:12:31;6.43;;;3.65;;
801;SDS011;383;48.766;9.270;2023-07-22T04:14:59;6.72;;;3.95;;
801;SDS011;383;48.766;9.270;2023-07-22T04:17:26;6.15;;;4.20;;
801;SDS011;383;48.766;9.270;2023-07-22T04:19:53;9.52;;;4.00;;
801;SDS011;383;48.766;9.270;2023-07-22T04:22:19;8.88;;;3.95;;
801;SDS011;383;48.766;9.270;2023-07-22T04:24:46;7.85;;;4.05;;
801;SDS011;383;48.766;9.270;2023-07-22T04:27:14;7.97;;;4.10;;
801;SDS011;383;48.766;9.270;2023-07-22T04:29:41;5.45;;;4.20;;
801;SDS011;383;48.766;9.270;2023-07-22T04:32:09;7.30;;;4.20;;
801;SDS011;383;48.766;9.270;2023-07-22T04:34:36;5.20;;;3.40;;
801;SDS011;383;48.766;9.270;2023-07-22T04:37:03;7.28;;;4.50;;
801;SDS011;383;48.766;9.270;2023-07-22T04:39:30;6.40;;;3.50;;
801;SDS011;383;48.766;9.270;2023-07-22T04:41:56;5.57;;;3.60;;
801;SDS011;383;48.766;9.270;2023-07-22T04:44:23;5.47;;;3.78;;
801;SDS011;383;48.766;9.270;2023-07-22T04:46:50;6.57;;;3.90;;
801;SDS011;383;48.766;9.270;2023-07-22T04:49:18;7.03;;;3.90;;
801;SDS011;383;48.766;9.270;2023-07-22T04:51:45;9.15;;;4.13;;
801;SDS011;383;48.766;9.270;2023-07-22T04:54:12;7.80;;;3.77;;
801;SDS011;383;48.766;9.270;2023-07-22T04:56:38;5.67;;;3.70;;
801;SDS011;383;48.766;9.270;2023-07-22T04:59:05;10.00;;;5.43;;
801;SDS011;383;48.766;9.270;2023-07-22T05:01:32;9.17;;;4.47;;
801;SDS011;383;48.766;9.270;2023-07-22T05:03:59;9.33;;;5.70;;
801;SDS011;383;48.766;9.270;2023-07-22T05:06:27;7.50;;;4.30;;
801;SDS011;383;48.766;9.270;2023-07-22T05:08:54;6.43;;;4.20;;
801;SDS011;383;48.766;9.270;2023-07-22T05:11:21;13.00;;;4.87;;
801;SDS011;383;48.766;9.270;2023-07-22T05:13:48;6.77;;;4.33;;
801;SDS011;383;48.766;9.270;2023-07-22T05:16:15;11.97;;;4.23;;
801;SDS011;383;48.766;9.270;2023-07-22T05:18:42;4.70;;;3.83;;
801;SDS011;383;48.766;9.270;2023-07-22T05:21:08;6.67;;;3.90;;
801;SDS011;383;48.766;9.270;2023-07-22T05:23:36;7.33;;;3.80;;
801;SDS011;383;48.766;9.270;2023-07-22T05:26:03;7.57;;;4.53;;
801;SDS011;383;48.766;9.270;2023-07-22T05:28:30;8.33;;;3.57;;
801;SDS011;383;48.766;9.270;2023-07-22T05:30:56;5.13;;;3.50;;
801;SDS011;383;48.766;9.270;2023-07-22T05:33:23;5.47;;;3.30;;
801;SDS011;383;48.766;9.270;2023-07-22T05:35:50;4.77;;;3.30;;
801;SDS011;383;48.766;9.270;2023-07-22T05:38:17;7.53;;;3.50;;
801;SDS011;383;48.766;9.270;2023-07-22T05:40:45;6.00;;;3.33;;
801;SDS011;383;48.766;9.270;2023-07-22T05:43:11;7.03;;;3.67;;
801;SDS011;383;48.766;9.270;2023-07-22T05:45:38;6.90;;;3.80;;
801;SDS011;383;48.766;9.270;2023-07-22T05:48:05;8.40;;;3.77;;
801;SDS011;383;48.766;9.270;2023-07-22T05:50:32;5.80;;;3.37;;
801;SDS011;383;48.766;9.270;2023-07-22T05:52:59;4.30;;;3.10;;
801;SDS011;383;48.766;9.270;2023-07-22T05:55:25;4.30;;;3.40;;
801;SDS011;383;48.766;9.270;2023-07-22T05:57:54;5.57;;;3.90;;
801;SDS011;383;48.766;9.270;2023-07-22T06:00:20;5.77;;;4.13;;
801;SDS011;383;48.766;9.270;2023-07-22T06:02:47;5.30;;;3.77;;
801;SDS011;383;48.766;9.270;2023-07-22T06:05:14;5.83;;;4.00;;
801;SDS011;383;48.766;9.270;2023-07-22T06:07:41;7.13;;;3.60;;
801;SDS011;383;48.766;9.270;2023-07-22T06:10:08;8.37;;;4.40;;
801;SDS011;383;48.766;9.270;2023-07-22T06:12:35;6.47;;;3.20;;
801;SDS011;383;48.766;9.270;2023-07-22T06:15:05;5.93;;;3.23;;
801;SDS011;383;48.766;9.270;2023-07-22T06:17:32;7.50;;;3.03;;
801;SDS011;383;48.766;9.270;2023-07-22T06:19:59;4.63;;;3.20;;
801;SDS011;383;48.766;9.270;2023-07-22T06:22:26;5.00;;;3.20;;
801;SDS011;383;48.766;9.270;2023-07-22T06:24:52;10.30;;;5.40;;
801;SDS011;383;48.766;9.270;2023-07-22T06:27:19;5.97;;;3.57;;
801;SDS011;383;48.766;9.270;2023-07-22T06:29:46;6.57;;;3.70;;
801;SDS011;383;48.766;9.270;2023-07-22T06:32:14;5.20;;;3.40;;
801;SDS011;383;48.766;9.270;2023-07-22T06:34:40;6.70;;;3.13;;
801;SDS011;383;48.766;9.270;2023-07-22T06:37:07;5.23;;;3.23;;
801;SDS011;383;48.766;9.270;2023-07-22T06:39:34;9.13;;;3.27;;
801;SDS011;383;48.766;9.270;2023-07-22T06:42:00;6.40;;;3.10;;
801;SDS011;383;48.766;9.270;2023-07-22T06:44:27;6.40;;;3.67;;
801;SDS011;383;48.766;9.270;2023-07-22T06:46:54;4.70;;;2.90;;
801;SDS011;383;48.766;9.270;2023-07-22T06:49:23;13.47;;;6.47;;
801;SDS011;383;48.766;9.270;2023-07-22T06:51:49;22.90;;;11.67;;
801;SDS011;383;48.766;9.270;2023-07-22T06:54:17;14.30;;;7.20;;
801;SDS011;383;48.766;9.270;2023-07-22T06:56:43;7.77;;;4.10;;
801;SDS011;383;48.766;9.270;2023-07-22T06:59:10;8.83;;;4.30;;
801;SDS011;383;48.766;9.270;2023-07-22T07:01:37;6.90;;;4.00;;
801;SDS011;383;48.766;9.270;2023-07-22T07:04:03;15.93;;;3.70;;
801;SDS011;383;48.766;9.270;2023-07-22T07:06:31;5.70;;;3.10;;
801;SDS011;383;48.766;9.270;2023-07-22T07:08:58;5.03;;;3.33;;
801;SDS011;383;48.766;9.270;2023-07-22T07:11:26;4.23;;;2.87;;
801;SDS011;383;48.766;9.270;2023-07-22T07:13:53;4.50;;;2.80;;
801;SDS011;383;48.766;9.270;2023-07-22T07:16:20;5.00;;;3.30;;
801;SDS011;383;48.766;9.270;2023-07-22T07:18:49;5.10;;;2.97;;
801;SDS011;383;48.766;9.270;2023-07-22T07:21:16;7.77;;;4.30;;
801;SDS011;383;48.766;9.270;2023-07-22T07:23:44;5.17;;;3.43;;
801;SDS011;383;48.766;9.270;2023-07-22T07:26:11;5.60;;;3.77;;
801;SDS011;383;48.766;9.270;2023-07-22T07:28:38;4.43;;;2.90;;
801;SDS011;383;48.766;9.270;2023-07-22T07:31:05;4.90;;;2.53;;
801;SDS011;383;48.766;9.270;2023-07-22T07:33:32;4.20;;;2.87;;
801;SDS011;383;48.766;9.270;2023-07-22T07:35:59;4.70;;;2.77;;
801;SDS011;383;48.766;9.270;2023-07-22T07:38:26;4.60;;;3.20;;
801;SDS011;383;48.766;9.270;2023-07-22T07:40:56;6.17;;;2.90;;
801;SDS011;383;48.766;9.270;2023-07-22T07:43:24;6.53;;;3.87;;
801;SDS011;383;48.766;9.270;2023-07-22T07:45:59;3.80;;;2.70;;
801;SDS011;383;48.766;9.270;2023-07-22T07:48:39;4.63;;;2.70;;
801;SDS011;383;48.766;9.270;2023-07-22T07:51:05;5.97;;;2.83;;
801;SDS011;383;48.766;9.270;2023-07-22T07:53:32;5.40;;;2.50;;
801;SDS011;383;48.766;9.270;2023-07-22T07:56:00;6.40;;;3.23;;
801;SDS011;383;48.766;9.270;2023-07-22T07:58:27;4.47;;;2.60;;
801;SDS011;383;48.766;9.270;2023-07-22T08:00:54;5.30;;;3.40;;
801;SDS011;383;48.766;9.270;2023-07-22T08:03:20;2.60;;;2.13;;
801;SDS011;383;48.766;9.270;2023-07-22T08:05:47;4.40;;;3.10;;
801;SDS011;383;48.766;9.270;2023-07-22T08:08:14;5.60;;;2.80;;
801;SDS011;383;48.766;9.270;2023-07-22T08:10:41;5.03;;;2.63;;
801;SDS011;383;48.766;9.270;2023-07-22T08:13:10;7.40;;;3.63;;
801;SDS011;383;48.766;9.270;2023-07-22T08:15:37;4.77;;;2.83;;
801;SDS011;383;48.766;9.270;2023-07-22T08:18:04;5.37;;;2.30;;
801;SDS011;383;48.766;9.270;2023-07-22T08:20:30;4.17;;;3.17;;
801;SDS011;383;48.766;9.270;2023-07-22T08:22:57;4.67;;;2.60;;
801;SDS011;383;48.766;9.270;2023-07-22T08:25:24;7.30;;;2.60;;
801;SDS011;383;48.766;9.270;2023-07-22T08:27:50;5.23;;;3.30;;
801;SDS011;383;48.766;9.270;2023-07-22T08:30:18;5.37;;;3.27;;
801;SDS011;383;48.766;9.270;2023-07-22T08:32:46;5.10;;;2.80;;
801;SDS011;383;48.766;9.270;2023-07-22T08:35:13;8.60;;;5.60;;
801;SDS011;383;48.766;9.270;2023-07-22T08:37:42;4.13;;;2.53;;
801;SDS011;383;48.766;9.270;2023-07-22T08:40:09;6.70;;;3.53;;
801;SDS011;383;48.766;9.270;2023-07-22T08:42:37;3.93;;;2.43;;
801;SDS011;383;48.766;9.270;2023-07-22T08:45:13;3.73;;;2.20;;
801;SDS011;383;48.766;9.270;2023-07-22T08:51:13;4.77;;;2.00;;
801;SDS011;383;48.766;9.270;2023-07-22T08:56:37;3.87;;;1.93;;
801;SDS011;383;48.766;9.270;2023-07-22T08:59:07;5.43;;;2.30;;
801;SDS011;383;48.766;9.270;2023-07-22T09:01:36;6.50;;;3.17;;
801;SDS011;383;48.766;9.270;2023-07-22T09:04:04;2.17;;;1.83;;
801;SDS011;383;48.766;9.270;2023-07-22T09:06:31;3.37;;;1.67;;
801;SDS011;383;48.766;9.270;2023-07-22T09:08:59;5.00;;;2.20;;
801;SDS011;383;48.766;9.270;2023-07-22T09:11:31;4.00;;;2.10;;
801;SDS011;383;48.766;9.270;2023-07-22T09:13:59;5.40;;;3.50;;
801;SDS011;383;48.766;9.270;2023-07-22T09:16:27;3.10;;;1.80;;
801;SDS011;383;48.766;9.270;2023-07-22T09:18:58;6.70;;;2.27;;
801;SDS011;383;48.766;9.270;2023-07-22T09:21:25;4.37;;;2.20;;
801;SDS011;383;48.766;9.270;2023-07-22T09:23:53;3.70;;;2.60;;
801;SDS011;383;48.766;9.270;2023-07-22T09:26:20;5.27;;;2.27;;
801;SDS011;383;48.766;9.270;2023-07-22T09:28:47;6.47;;;1.87;;
801;SDS011;383;48.766;9.270;2023-07-22T09:31:14;3.90;;;2.00;;
801;SDS011;383;48.766;9.270;2023-07-22T09:33:41;8.57;;;2.50;;
801;SDS011;383;48.766;9.270;2023-07-22T09:36:10;4.13;;;2.00;;
801;SDS011;383;48.766;9.270;2023-07-22T09:38:37;3.37;;;2.27;;
801;SDS011;383;48.766;9.270;2023-07-22T09:41:04;5.30;;;2.30;;
801;SDS011;383;48.766;9.270;2023-07-22T09:43:31;3.30;;;2.20;;
801;SDS011;383;48.766;9.270;2023-07-22T09:46:05;2.43;;;1.80;;
801;SDS011;383;48.766;9.270;2023-07-22T09:48:38;3.10;;;2.00;;
801;SDS011;383;48.766;9.270;2023-07-22T09:51:06;3.50;;;1.73;;
801;SDS011;383;48.766;9.270;2023-07-22T09:53:46;5.73;;;2.10;;
801;SDS011;383;48.766;9.270;2023-07-22T09:56:13;3.60;;;2.67;;
801;SDS011;383;48.766;9.270;2023-07-22T09:58:40;3.07;;;2.17;;
801;SDS011;383;48.766;9.270;2023-07-22T10:01:07;5.13;;;2.30;;
801;SDS011;383;48.766;9.270;2023-07-22T10:03:34;3.77;;;1.87;;
801;SDS011;383;48.766;9.270;2023-07-22T10:06:05;5.17;;;2.33;;
801;SDS011;383;48.766;9.270;2023-07-22T10:08:35;3.60;;;2.30;;
801;SDS011;383;48.766;9.270;2023-07-22T10:11:03;3.80;;;2.13;;
801;SDS011;383;48.766;9.270;2023-07-22T10:13:32;3.90;;;1.73;;
801;SDS011;383;48.766;9.270;2023-07-22T10:16:00;4.07;;;2.27;;
801;SDS011;383;48.766;9.270;2023-07-22T10:18:27;3.67;;;2.00;;
801;SDS011;383;48.766;9.270;2023-07-22T10:20:56;5.70;;;1.80;;
801;SDS011;383;48.766;9.270;2023-07-22T10:23:25;6.33;;;2.40;;
801;SDS011;383;48.766;9.270;2023-07-22T10:25:57;4.60;;;2.37;;
801;SDS011;383;48.766;9.270;2023-07-22T10:28:24;3.50;;;2.33;;
801;SDS011;383;48.766;9.270;2023-07-22T10:30:51;2.93;;;2.13;;
801;SDS011;383;48.766;9.270;2023-07-22T10:33:18;3.93;;;2.00;;
801;SDS011;383;48.766;9.270;2023-07-22T10:38:29;2.50;;;1.60;;
801;SDS011;383;48.766;9.270;2023-07-22T10:40:58;4.93;;;2.03;;
801;SDS011;383;48.766;9.270;2023-07-22T10:43:25;2.90;;;1.87;;
801;SDS011;383;48.766;9.270;2023-07-22T10:45:53;2.73;;;1.70;;
801;SDS011;383;48.766;9.270;2023-07-22T10:48:22;4.97;;;2.23;;
801;SDS011;383;48.766;9.270;2023-07-22T10:50:52;3.37;;;2.00;;
801;SDS011;383;48.766;9.270;2023-07-22T10:53:20;4.30;;;1.93;;
801;SDS011;383;48.766;9.270;2023-07-22T10:56:11;3.10;;;2.07;;
801;SDS011;383;48.766;9.270;2023-07-22T10:58:54;3.27;;;1.90;;
801;SDS011;383;48.766;9.270;2023-07-22T11:01:23;3.40;;;1.87;;
801;SDS011;383;48.766;9.270;2023-07-22T11:04:07;2.73;;;2.30;;
801;SDS011;383;48.766;9.270;2023-07-22T11:06:38;4.90;;;1.70;;
801;SDS011;383;48.766;9.270;2023-07-22T11:12:17;1.93;;;1.63;;
801;SDS011;383;48.766;9.270;2023-07-22T11:14:46;3.90;;;1.97;;
801;SDS011;383;48.766;9.270;2023-07-22T11:17:14;10.90;;;1.73;;
801;SDS011;383;48.766;9.270;2023-07-22T11:19:42;3.30;;;1.70;;
801;SDS011;383;48.766;9.270;2023-07-22T11:22:10;8.30;;;2.80;;
801;SDS011;383;48.766;9.270;2023-07-22T11:24:37;4.10;;;1.87;;
801;SDS011;383;48.766;9.270;2023-07-22T11:27:04;2.87;;;1.80;;
801;SDS011;383;48.766;9.270;2023-07-22T11:29:33;3.10;;;2.00;;
801;SDS011;383;48.766;9.270;2023-07-22T11:32:01;2.00;;;1.60;;
801;SDS011;383;48.766;9.270;2023-07-22T11:34:28;4.33;;;2.10;;
801;SDS011;383;48.766;9.270;2023-07-22T11:36:55;2.50;;;2.00;;
801;SDS011;383;48.766;9.270;2023-07-22T11:39:23;4.53;;;2.70;;
801;SDS011;383;48.766;9.270;2023-07-22T11:41:51;4.37;;;2.17;;
801;SDS011;383;48.766;9.270;2023-07-22T11:44:19;6.13;;;2.10;;
801;SDS011;383;48.766;9.270;2023-07-22T11:46:49;6.00;;;1.93;;
801;SDS011;383;48.766;9.270;2023-07-22T11:49:22;6.30;;;2.80;;
801;SDS011;383;48.766;9.270;2023-07-22T11:51:50;3.83;;;2.10;;
801;SDS011;383;48.766;9.270;2023-07-22T11:54:17;3.00;;;1.80;;
801;SDS011;383;48.766;9.270;2023-07-22T11:56:46;5.10;;;3.23;;
801;SDS011;383;48.766;9.270;2023-07-22T11:59:13;2.70;;;2.03;;
801;SDS011;383;48.766;9.270;2023-07-22T12:01:42;3.60;;;2.13;;
801;SDS011;383;48.766;9.270;2023-07-22T12:04:11;4.27;;;2.33;;
801;SDS011;383;48.766;9.270;2023-07-22T12:06:39;3.90;;;2.30;;
801;SDS011;383;48.766;9.270;2023-07-22T12:09:06;3.37;;;2.23;;
801;SDS011;383;48.766;9.270;2023-07-22T12:11:35;2.80;;;2.10;;
801;SDS011;383;48.766;9.270;2023-07-22T12:14:06;2.83;;;2.07;;
801;SDS011;383;48.766;9.270;2023-07-22T12:16:34;3.20;;;2.07;;
801;SDS011;383;48.766;9.270;2023-07-22T12:19:01;4.23;;;2.27;;
801;SDS011;383;48.766;9.270;2023-07-22T12:21:30;3.40;;;1.97;;
801;SDS011;383;48.766;9.270;2023-07-22T12:23:56;5.00;;;2.30;;
801;SDS011;383;48.766;9.270;2023-07-22T12:26:23;3.67;;;2.13;;
801;SDS011;383;48.766;9.270;2023-07-22T12:28:50;3.93;;;2.43;;
801;SDS011;383;48.766;9.270;2023-07-22T12:31:17;2.87;;;2.30;;
801;SDS011;383;48.766;9.270;2023-07-22T12:33:44;2.20;;;1.70;;
801;SDS011;383;48.766;9.270;2023-07-22T12:36:11;6.57;;;2.30;;
801;SDS011;383;48.766;9.270;2023-07-22T12:38:39;3.30;;;2.20;;
801;SDS011;383;48.766;9.270;2023-07-22T12:41:06;4.13;;;2.10;;
801;SDS011;383;48.766;9.270;2023-07-22T12:43:33;4.37;;;2.30;;
801;SDS011;383;48.766;9.270;2023-07-22T12:45:59;4.30;;;2.20;;
801;SDS011;383;48.766;9.270;2023-07-22T12:48:26;2.80;;;2.20;;
801;SDS011;383;48.766;9.270;2023-07-22T12:50:53;5.83;;;2.17;;
801;SDS011;383;48.766;9.270;2023-07-22T12:53:19;2.67;;;2.10;;
801;SDS011;383;48.766;9.270;2023-07-22T12:55:47;4.30;;;2.00;;
801;SDS011;383;48.766;9.270;2023-07-22T12:58:14;2.17;;;1.73;;
801;SDS011;383;48.766;9.270;2023-07-22T13:00:41;2.80;;;2.20;;
801;SDS011;383;48.766;9.270;2023-07-22T13:03:07;4.83;;;2.37;;
801;SDS011;383;48.766;9.270;2023-07-22T13:05:34;2.87;;;2.10;;
801;SDS011;383;48.766;9.270;2023-07-22T13:08:01;8.20;;;2.10;;
801;SDS011;383;48.766;9.270;2023-07-22T13:10:28;4.37;;;2.80;;
801;SDS011;383;48.766;9.270;2023-07-22T13:12:57;3.10;;;2.30;;
801;SDS011;383;48.766;9.270;2023-07-22T13:15:23;3.83;;;2.20;;
801;SDS011;383;48.766;9.270;2023-07-22T13:17:50;3.17;;;2.20;;
801;SDS011;383;48.766;9.270;2023-07-22T13:20:17;3.83;;;2.40;;
801;SDS011;383;48.766;9.270;2023-07-22T13:22:44;4.20;;;2.40;;
801;SDS011;383;48.766;9.270;2023-07-22T13:25:10;4.10;;;2.60;;
801;SDS011;383;48.766;9.270;2023-07-22T13:27:37;4.60;;;2.70;;
801;SDS011;383;48.766;9.270;2023-07-22T13:30:07;3.87;;;2.23;;
801;SDS011;383;48.766;9.270;2023-07-22T13:32:34;4.30;;;2.47;;
801;SDS011;383;48.766;9.270;2023-07-22T13:35:01;3.17;;;2.70;;
801;SDS011;383;48.766;9.270;2023-07-22T13:37:28;6.13;;;2.87;;
801;SDS011;383;48.766;9.270;2023-07-22T13:39:55;2.90;;;2.30;;
801;SDS011;383;48.766;9.270;2023-07-22T13:42:22;6.00;;;2.73;;
801;SDS011;383;48.766;9.270;2023-07-22T13:44:50;10.93;;;3.17;;
801;SDS011;383;48.766;9.270;2023-07-22T13:47:18;4.43;;;2.97;;
801;SDS011;383;48.766;9.270;2023-07-22T13:49:44;4.17;;;2.30;;
801;SDS011;383;48.766;9.270;2023-07-22T13:52:11;6.17;;;2.73;;
801;SDS011;383;48.766;9.270;2023-07-22T13:54:38;4.13;;;2.80;;
801;SDS011;383;48.766;9.270;2023-07-22T13:57:05;7.40;;;4.37;;
801;SDS011;383;48.766;9.270;2023-07-22T13:59:32;4.00;;;2.80;;
801;SDS011;383;48.766;9.270;2023-07-22T14:01:59;3.10;;;2.07;;
801;SDS011;383;48.766;9.270;2023-07-22T14:04:27;5.47;;;3.10;;
801;SDS011;383;48.766;9.270;2023-07-22T14:06:54;9.20;;;3.00;;
801;SDS011;383;48.766;9.270;2023-07-22T14:09:21;4.87;;;2.90;;
801;SDS011;383;48.766;9.270;2023-07-22T14:11:47;2.50;;;2.10;;
801;SDS011;383;48.766;9.270;2023-07-22T14:14:14;4.63;;;2.90;;
801;SDS011;383;48.766;9.270;2023-07-22T14:16:41;3.90;;;2.50;;
801;SDS011;383;48.766;9.270;2023-07-22T14:19:07;6.77;;;3.77;;
801;SDS011;383;48.766;9.270;2023-07-22T14:21:35;3.70;;;2.80;;
801;SDS011;383;48.766;9.270;2023-07-22T14:24:02;4.23;;;2.50;;
801;SDS011;383;48.766;9.270;2023-07-22T14:26:29;11.80;;;3.20;;
801;SDS011;383;48.766;9.270;2023-07-22T14:28:56;4.17;;;3.17;;
801;SDS011;383;48.766;9.270;2023-07-22T14:31:23;4.40;;;2.43;;
801;SDS011;383;48.766;9.270;2023-07-22T14:33:49;3.70;;;2.60;;
801;SDS011;383;48.766;9.270;2023-07-22T14:36:16;4.17;;;2.60;;
801;SDS011;383;48.766;9.270;2023-07-22T14:38:44;4.10;;;3.30;;
801;SDS011;383;48.766;9.270;2023-07-22T14:41:11;4.60;;;2.93;;
801;SDS011;383;48.766;9.270;2023-07-22T14:43:38;5.20;;;2.70;;
801;SDS011;383;48.766;9.270;2023-07-22T14:46:05;4.30;;;2.70;;
801;SDS011;383;48.766;9.270;2023-07-22T14:48:31;6.33;;;3.10;;
801;SDS011;383;48.766;9.270;2023-07-22T14:50:58;6.43;;;3.10;;
801;SDS011;383;48.766;9.270;2023-07-22T14:53:25;8.67;;;3.10;;
801;SDS011;383;48.766;9.270;2023-07-22T14:55:54;3.50;;;2.60;;
801;SDS011;383;48.766;9.270;2023-07-22T14:58:21;7.40;;;3.27;;
801;SDS011;383;48.766;9.270;2023-07-22T15:00:47;5.20;;;3.37;;
801;SDS011;383;48.766;9.270;2023-07-22T15:03:15;3.87;;;3.00;;
801;SDS011;383;48.766;9.270;2023-07-22T15:05:42;4.13;;;3.07;;
801;SDS011;383;48.766;9.270;2023-07-22T15:08:09;11.70;;;3.80;;
801;SDS011;383;48.766;9.270;2023-07-22T15:10:36;4.70;;;3.07;;
801;SDS011;383;48.766;9.270;2023-07-22T15:13:04;6.23;;;3.37;;
801;SDS011;383;48.766;9.270;2023-07-22T15:15:30;7.30;;;3.30;;
801;SDS011;383;48.766;9.270;2023-07-22T15:17:57;4.17;;;3.07;;
801;SDS011;383;48.766;9.270;2023-07-22T15:20:24;6.73;;;3.60;;
801;SDS011;383;48.766;9.270;2023-07-22T15:22:50;7.90;;;3.07;;
801;SDS011;383;48.766;9.270;2023-07-22T15:25:17;6.20;;;3.13;;
801;SDS011;383;48.766;9.270;2023-07-22T15:27:49;6.40;;;3.87;;
801;SDS011;383;48.766;9.270;2023-07-22T15:30:17;6.90;;;3.30;;
801;SDS011;383;48.766;9.270;2023-07-22T15:32:44;6.20;;;3.63;;
801;SDS011;383;48.766;9.270;2023-07-22T15:35:11;8.30;;;3.60;;
801;SDS011;383;48.766;9.270;2023-07-22T15:37:39;7.17;;;4.10;;
801;SDS011;383;48.766;9.270;2023-07-22T15:40:06;5.30;;;2.70;;
801;SDS011;383;48.766;9.270;2023-07-22T15:42:33;5.70;;;3.30;;
801;SDS011;383;48.766;9.270;2023-07-22T15:45:00;6.13;;;3.30;;
801;SDS011;383;48.766;9.270;2023-07-22T15:47:28;9.03;;;3.90;;
801;SDS011;383;48.766;9.270;2023-07-22T15:49:55;6.03;;;3.30;;
801;SDS011;383;48.766;9.270;2023-07-22T15:52:22;5.50;;;3.67;;
801;SDS011;383;48.766;9.270;2023-07-22T15:54:49;5.57;;;3.80;;
801;SDS011;383;48.766;9.270;2023-07-22T15:57:16;6.73;;;4.30;;
801;SDS011;383;48.766;9.270;2023-07-22T15:59:43;6.90;;;4.60;;